Time;durP1;ratioP1;P1;durP2;ratioP2;P2;SDS_P1;SDS_P2;PMS_P1;PMS_P2;Temp;Humidity;BMP_temperature;BMP_pressure;BME280_temperature;BME280_humidity;BME280_pressure;Samples;Min_cycle;Max_cycle;Signal;HPM_P1;HPM_P2
2023/11/22 00:01:25;;;;;;;27.00;14.40;;;;;;;0.82;82.99;100682.98;108237;1251;73951;-67
2023/11/22 00:03:54;;;;;;;25.80;15.60;;;;;;;0.79;82.85;100688.58;108289;1256;71264;-68
2023/11/22 00:06:21;;;;;;;25.30;14.80;;;;;;;0.76;83.02;100685.36;108040;1256;72520;-68
2023/11/22 00:08:49;;;;;;;25.50;15.40;;;;;;;0.75;83.32;100687.94;108266;1256;60842;-67
2023/11/22 00:11:17;;;;;;;25.80;15.20;;;;;;;0.75;83.49;100688.46;108308;1254;59444;-68
2023/11/22 00:13:45;;;;;;;25.50;15.90;;;;;;;0.73;83.38;100693.67;108292;1251;74935;-67
2023/11/22 00:16:12;;;;;;;25.10;15.70;;;;;;;0.73;83.87;100694.92;108252;1251;72608;-67
2023/11/22 00:18:40;;;;;;;25.50;15.20;;;;;;;0.74;84.07;100689.63;108210;1251;72735;-67
2023/11/22 00:21:09;;;;;;;28.20;16.50;;;;;;;0.76;84.20;100690.33;108238;1259;61149;-67
2023/11/22 00:23:37;;;;;;;29.20;17.00;;;;;;;0.75;84.26;100692.14;108237;1256;60229;-67
2023/11/22 00:26:06;;;;;;;25.80;15.80;;;;;;;0.77;84.63;100691.27;108243;1251;73861;-68
2023/11/22 00:28:34;;;;;;;29.30;16.40;;;;;;;0.76;84.99;100692.42;108246;1257;70753;-67
2023/11/22 00:31:03;;;;;;;25.60;15.70;;;;;;;0.74;85.05;100691.40;108230;1253;70228;-67
2023/11/22 00:33:31;;;;;;;26.20;15.40;;;;;;;0.73;85.40;100687.02;108109;1254;60575;-67
2023/11/22 00:35:59;;;;;;;25.10;15.60;;;;;;;0.69;85.68;100684.65;108082;1254;60345;-68
2023/11/22 00:38:27;;;;;;;28.80;17.10;;;;;;;0.65;85.78;100686.08;108280;1251;73816;-67
2023/11/22 00:40:54;;;;;;;25.10;14.80;;;;;;;0.63;86.01;100682.34;108160;1251;71252;-67
2023/11/22 00:43:22;;;;;;;27.00;14.80;;;;;;;0.64;86.35;100678.98;108254;1257;72526;-67
2023/11/22 00:45:50;;;;;;;26.00;15.00;;;;;;;0.64;86.66;100684.64;108124;1257;60431;-67
2023/11/22 00:48:18;;;;;;;27.40;16.50;;;;;;;0.65;86.88;100678.22;108284;1251;59266;-69
2023/11/22 00:50:46;;;;;;;24.40;14.30;;;;;;;0.65;86.83;100677.70;108241;1251;73966;-67
2023/11/22 00:53:14;;;;;;;27.30;15.70;;;;;;;0.65;87.23;100677.70;108216;1251;72692;-67
2023/11/22 00:55:42;;;;;;;22.30;13.10;;;;;;;0.66;87.53;100678.39;108185;1251;72720;-67
2023/11/22 00:58:10;;;;;;;24.40;15.50;;;;;;;0.64;87.82;100673.11;108276;1253;61719;-72
2023/11/22 01:00:38;;;;;;;26.80;16.30;;;;;;;0.59;88.11;100673.02;108244;1251;60310;-68
2023/11/22 01:03:05;;;;;;;26.50;16.30;;;;;;;0.53;88.43;100669.25;108277;1256;72538;-68
2023/11/22 01:05:34;;;;;;;27.30;16.20;;;;;;;0.51;88.72;100671.79;108275;1257;71418;-67
2023/11/22 01:08:01;;;;;;;28.00;16.90;;;;;;;0.50;89.43;100675.05;108216;1256;72899;-68
2023/11/22 01:10:29;;;;;;;26.20;15.50;;;;;;;0.52;89.74;100673.05;108166;1255;60912;-68
2023/11/22 01:12:57;;;;;;;31.30;16.50;;;;;;;0.55;90.16;100672.92;108239;1254;60434;-68
2023/11/22 01:15:25;;;;;;;25.90;15.60;;;;;;;0.57;90.42;100677.59;108126;1251;71633;-68
2023/11/22 01:17:52;;;;;;;27.50;16.90;;;;;;;0.57;90.43;100679.25;108213;1251;71631;-67
2023/11/22 01:20:22;;;;;;;29.00;17.10;;;;;;;0.57;90.89;100671.56;108163;1254;71144;-67
2023/11/22 01:22:50;;;;;;;31.10;18.50;;;;;;;0.58;91.21;100668.78;108207;1251;60284;-67
2023/11/22 01:25:19;;;;;;;29.20;16.80;;;;;;;0.58;91.36;100672.14;108175;1251;60444;-67
2023/11/22 01:27:47;;;;;;;27.40;16.20;;;;;;;0.58;91.58;100670.71;108293;1251;73905;-68
2023/11/22 01:30:14;;;;;;;27.90;16.90;;;;;;;0.55;91.72;100670.00;108294;1251;72453;-67
2023/11/22 01:32:44;;;;;;;32.20;17.80;;;;;;;0.52;91.92;100673.89;108319;1251;71797;-68
2023/11/22 01:35:12;;;;;;;28.10;17.30;;;;;;;0.50;92.33;100672.47;108122;1255;60319;-67
2023/11/22 01:37:40;;;;;;;28.20;17.50;;;;;;;0.48;92.68;100675.64;108302;1251;60303;-68
2023/11/22 01:40:08;;;;;;;27.80;17.10;;;;;;;0.46;93.02;100679.88;108280;1251;72579;-67
2023/11/22 01:42:38;;;;;;;30.10;16.70;;;;;;;0.48;93.34;100680.05;108287;1251;71414;-67
2023/11/22 01:45:07;;;;;;;28.70;17.20;;;;;;;0.49;93.60;100680.70;108300;1251;72497;-67
2023/11/22 01:47:35;;;;;;;27.20;16.90;;;;;;;0.48;94.13;100683.20;108575;1254;60884;-66
2023/11/22 01:50:05;;;;;;;28.00;16.10;;;;;;;0.46;93.85;100688.19;108283;1256;60113;-66
2023/11/22 01:52:33;;;;;;;27.50;16.80;;;;;;;0.45;94.19;100682.89;108189;1251;73866;-67
2023/11/22 01:55:05;;;;;;;25.30;14.60;;;;;;;0.46;94.52;100679.77;108183;1253;72792;-68
2023/11/22 02:01:07;;;;;;;27.50;17.50;;;;;;;0.47;95.28;100678.91;108061;1256;59644;-66
2023/11/22 02:03:35;;;;;;;27.40;16.40;;;;;;;0.50;95.64;100678.90;108137;1254;59475;-67
2023/11/22 02:06:03;;;;;;;27.20;17.20;;;;;;;0.53;95.87;100678.73;108194;1251;72380;-66
2023/11/22 02:08:30;;;;;;;25.80;15.80;;;;;;;0.57;95.78;100681.06;108186;1251;72697;-67
2023/11/22 02:10:59;;;;;;;27.00;15.40;;;;;;;0.58;95.96;100683.54;108132;1251;72643;-68
2023/11/22 02:13:30;;;;;;;30.60;17.80;;;;;;;0.58;95.79;100681.77;108180;1251;60392;-67
2023/11/22 02:15:59;;;;;;;28.20;17.10;;;;;;;0.57;95.79;100683.86;108214;1251;60455;-68
2023/11/22 02:18:27;;;;;;;26.90;16.50;;;;;;;0.57;95.99;100683.86;108177;1251;72661;-67
2023/11/22 02:20:56;;;;;;;28.20;18.20;;;;;;;0.58;95.92;100686.20;108152;1255;71758;-67
2023/11/22 02:23:24;;;;;;;26.40;16.30;;;;;;;0.59;95.97;100689.40;108133;1252;72721;-68
2023/11/22 02:25:51;;;;;;;28.00;16.80;;;;;;;0.59;96.27;100686.91;108258;1251;60819;-68
2023/11/22 02:28:19;;;;;;;27.00;16.50;;;;;;;0.59;96.49;100686.91;108235;1251;60206;-67
2023/11/22 02:30:47;;;;;;;31.80;18.30;;;;;;;0.59;96.28;100694.80;108238;1251;72873;-66
2023/11/22 02:33:14;;;;;;;30.00;18.50;;;;;;;0.60;96.20;100695.73;108193;1252;71854;-67
2023/11/22 02:35:46;;;;;;;27.20;17.80;;;;;;;0.61;96.34;100699.61;108232;1251;73698;-68
2023/11/22 02:38:13;;;;;;;28.60;17.90;;;;;;;0.62;96.37;100701.77;108189;1251;60297;-67
2023/11/22 02:40:42;;;;;;;24.20;14.90;;;;;;;0.60;96.29;100699.38;108297;1251;60354;-69
2023/11/22 02:43:11;;;;;;;28.20;17.70;;;;;;;0.59;96.16;100699.68;108257;1251;71672;-68
2023/11/22 02:45:38;;;;;;;29.00;17.50;;;;;;;0.58;96.29;100697.77;108265;1251;72450;-67
2023/11/22 02:48:09;;;;;;;24.90;15.20;;;;;;;0.59;96.40;100697.30;108245;1251;71432;-67
2023/11/22 02:50:37;;;;;;;28.20;17.90;;;;;;;0.58;96.48;100692.27;108197;1251;60878;-67
2023/11/22 02:53:05;;;;;;;29.40;17.60;;;;;;;0.55;96.39;100689.00;108159;1251;60197;-67
2023/11/22 02:55:32;;;;;;;29.50;17.60;;;;;;;0.52;96.29;100688.13;108206;1253;72535;-68
2023/11/22 02:58:00;;;;;;;27.80;17.10;;;;;;;0.50;96.45;100685.27;108307;1251;71993;-67
2023/11/22 03:00:29;;;;;;;29.60;18.60;;;;;;;0.48;96.82;100685.83;108303;1256;72715;-67
2023/11/22 03:02:56;;;;;;;30.00;18.20;;;;;;;0.47;96.93;100686.14;108250;1251;60319;-66
2023/11/22 03:05:24;;;;;;;29.00;17.50;;;;;;;0.46;97.22;100685.33;108220;1251;60278;-66
2023/11/22 03:07:52;;;;;;;28.20;17.70;;;;;;;0.45;97.56;100685.46;108195;1251;73883;-67
2023/11/22 03:10:20;;;;;;;26.40;15.90;;;;;;;0.43;97.60;100684.25;108168;1251;71664;-66
2023/11/22 03:12:47;;;;;;;27.90;16.80;;;;;;;0.42;97.98;100686.77;108175;1256;72709;-66
2023/11/22 03:15:15;;;;;;;28.60;17.70;;;;;;;0.39;98.11;100687.64;108165;1254;60896;-66
2023/11/22 03:17:44;;;;;;;29.10;17.90;;;;;;;0.37;98.13;100686.09;108201;1253;59455;-65
2023/11/22 03:20:11;;;;;;;26.90;16.60;;;;;;;0.36;98.52;100689.39;108190;1252;71655;-66
2023/11/22 03:22:39;;;;;;;29.00;18.50;;;;;;;0.37;98.94;100693.33;108140;1253;71669;-66
2023/11/22 03:25:09;;;;;;;30.00;18.50;;;;;;;0.37;99.37;100689.84;108179;1253;72681;-66
2023/11/22 03:27:38;;;;;;;27.10;17.30;;;;;;;0.37;99.56;100692.48;108222;1252;60454;-67
2023/11/22 03:30:10;;;;;;;30.50;17.80;;;;;;;0.36;99.60;100687.52;108218;1254;60418;-67
2023/11/22 03:32:44;;;;;;;27.10;17.20;;;;;;;0.34;99.78;100693.29;108162;1254;73963;-67
2023/11/22 03:35:12;;;;;;;26.50;16.50;;;;;;;0.34;99.90;100695.48;108211;1253;71111;-67
2023/11/22 03:37:39;;;;;;;29.30;15.80;;;;;;;0.31;99.92;100699.67;108219;1254;71112;-68
2023/11/22 03:40:09;;;;;;;28.40;17.30;;;;;;;0.28;99.97;100700.54;108150;1254;60669;-66
2023/11/22 03:42:38;;;;;;;27.60;17.90;;;;;;;0.29;100.00;100699.05;108197;1251;60100;-68
2023/11/22 03:45:06;;;;;;;30.80;18.30;;;;;;;0.30;100.00;100697.77;108258;1251;73860;-67
2023/11/22 03:47:37;;;;;;;31.00;18.50;;;;;;;0.33;100.00;100701.80;108246;1251;71231;-67
2023/11/22 03:50:06;;;;;;;30.40;17.40;;;;;;;0.36;100.00;100708.34;108124;1254;72670;-67
2023/11/22 03:52:34;;;;;;;29.10;17.60;;;;;;;0.36;100.00;100712.38;108101;1254;60217;-67
2023/11/22 03:55:03;;;;;;;29.90;18.10;;;;;;;0.38;100.00;100718.11;108178;1251;60360;-67
2023/11/22 03:57:31;;;;;;;27.50;17.70;;;;;;;0.39;100.00;100716.02;108185;1251;72155;-67
2023/11/22 03:59:59;;;;;;;26.30;16.90;;;;;;;0.39;100.00;100717.10;108193;1251;72916;-67
2023/11/22 04:02:29;;;;;;;27.10;16.50;;;;;;;0.37;100.00;100714.79;108282;1253;71074;-68
2023/11/22 04:04:57;;;;;;;29.00;17.10;;;;;;;0.37;100.00;100720.13;108212;1251;60271;-67
2023/11/22 04:07:24;;;;;;;25.70;15.70;;;;;;;0.36;100.00;100722.27;108186;1251;60306;-67
2023/11/22 04:09:52;;;;;;;28.70;18.10;;;;;;;0.37;100.00;100724.02;108184;1251;73828;-67
2023/11/22 04:12:19;;;;;;;25.90;16.20;;;;;;;0.37;100.00;100723.59;108194;1251;74317;-67
2023/11/22 04:14:47;;;;;;;26.30;17.10;;;;;;;0.36;100.00;100721.77;108263;1251;72689;-69
2023/11/22 04:17:16;;;;;;;25.40;16.20;;;;;;;0.35;100.00;100726.52;108331;1251;59586;-69
2023/11/22 04:19:44;;;;;;;26.10;17.10;;;;;;;0.35;100.00;100723.12;108184;1251;60327;-68
2023/11/22 04:22:12;;;;;;;26.80;16.80;;;;;;;0.36;100.00;100725.34;108173;1251;73894;-68
2023/11/22 04:24:39;;;;;;;27.20;17.20;;;;;;;0.36;100.00;100728.05;108181;1257;72698;-68
2023/11/22 04:27:07;;;;;;;25.60;16.30;;;;;;;0.36;100.00;100730.21;108538;1253;73824;-67
2023/11/22 04:29:35;;;;;;;26.70;16.70;;;;;;;0.36;100.00;100735.59;108434;1251;61164;-67
2023/11/22 04:32:03;;;;;;;25.20;17.30;;;;;;;0.37;100.00;100740.46;108293;1251;59945;-69
2023/11/22 04:34:30;;;;;;;25.10;15.90;;;;;;;0.38;100.00;100738.16;108163;1251;73810;-70
2023/11/22 04:36:58;;;;;;;25.50;16.50;;;;;;;0.39;100.00;100737.92;108210;1251;71607;-67
2023/11/22 04:39:26;;;;;;;25.90;16.50;;;;;;;0.35;100.00;100738.33;108229;1251;70730;-68
2023/11/22 04:41:53;;;;;;;27.30;16.90;;;;;;;0.33;100.00;100735.32;108162;1254;60473;-67
2023/11/22 04:44:21;;;;;;;27.20;17.20;;;;;;;0.32;100.00;100737.52;108313;1254;60080;-67
2023/11/22 04:46:49;;;;;;;23.80;16.00;;;;;;;0.32;100.00;100741.00;108220;1251;73868;-68
2023/11/22 04:49:16;;;;;;;24.20;16.50;;;;;;;0.34;100.00;100744.83;108485;1251;71559;-68
2023/11/22 04:51:45;;;;;;;25.90;16.80;;;;;;;0.36;100.00;100745.05;108172;1251;72499;-69
2023/11/22 04:54:13;;;;;;;26.50;16.50;;;;;;;0.36;100.00;100749.09;108181;1251;61062;-68
2023/11/22 04:56:40;;;;;;;27.30;17.50;;;;;;;0.36;100.00;100746.52;108173;1251;60306;-68
2023/11/22 04:59:08;;;;;;;27.00;16.10;;;;;;;0.35;100.00;100749.44;108179;1253;73187;-68
2023/11/22 05:01:36;;;;;;;25.30;16.40;;;;;;;0.36;100.00;100754.52;108364;1251;72499;-69
2023/11/22 05:04:03;;;;;;;24.50;15.20;;;;;;;0.35;100.00;100760.11;108195;1251;71450;-71
2023/11/22 05:06:31;;;;;;;28.60;16.90;;;;;;;0.33;100.00;100759.13;108171;1251;60889;-68
2023/11/22 05:08:59;;;;;;;25.20;16.30;;;;;;;0.34;100.00;100759.38;108176;1251;60258;-68
2023/11/22 05:11:27;;;;;;;25.40;17.20;;;;;;;0.35;100.00;100761.73;108327;1251;73869;-68
2023/11/22 05:13:55;;;;;;;25.70;15.50;;;;;;;0.33;100.00;100766.96;108192;1251;71652;-69
2023/11/22 05:16:23;;;;;;;27.90;17.00;;;;;;;0.34;100.00;100772.64;108153;1251;72674;-67
2023/11/22 05:18:52;;;;;;;26.10;17.00;;;;;;;0.35;100.00;100774.98;108230;1251;60326;-67
2023/11/22 05:21:21;;;;;;;27.60;16.10;;;;;;;0.37;100.00;100777.04;108223;1251;59867;-67
2023/11/22 05:23:54;;;;;;;21.60;13.30;;;;;;;0.36;100.00;100780.77;108236;1251;72559;-68
2023/11/22 05:26:30;;;;;;;22.00;15.10;;;;;;;0.33;100.00;100778.52;108225;1253;74179;-68
2023/11/22 05:29:00;;;;;;;24.50;15.80;;;;;;;0.31;100.00;100774.10;108162;1251;71497;-68
2023/11/22 05:31:33;;;;;;;24.70;15.80;;;;;;;0.29;100.00;100773.98;108279;1251;60983;-68
2023/11/22 05:34:10;;;;;;;25.60;16.50;;;;;;;0.24;100.00;100781.54;108157;1256;60858;-68
2023/11/22 05:36:42;;;;;;;27.70;17.10;;;;;;;0.23;100.00;100785.51;108155;1251;72766;-67
2023/11/22 05:39:17;;;;;;;25.80;16.20;;;;;;;0.23;100.00;100783.21;108166;1251;71654;-68
2023/11/22 05:41:48;;;;;;;24.40;15.70;;;;;;;0.27;100.00;100787.73;108264;1251;71482;-68
2023/11/22 05:44:20;;;;;;;22.60;14.60;;;;;;;0.28;100.00;100789.05;108229;1253;60821;-67
2023/11/22 05:46:57;;;;;;;25.60;16.10;;;;;;;0.27;100.00;100795.43;108107;1254;59682;-68
2023/11/22 05:49:39;;;;;;;22.50;14.00;;;;;;;0.24;100.00;100794.17;108131;1253;72400;-68
2023/11/22 05:52:18;;;;;;;25.10;15.20;;;;;;;0.24;100.00;100794.86;108176;1253;71438;-67
2023/11/22 05:54:51;;;;;;;23.60;15.30;;;;;;;0.24;100.00;100802.39;108189;1252;73222;-69
2023/11/22 05:57:25;;;;;;;24.40;15.70;;;;;;;0.25;100.00;100807.00;108202;1253;60550;-69
2023/11/22 06:00:16;;;;;;;26.10;15.30;;;;;;;0.25;100.00;100810.31;108340;1253;61140;-68
2023/11/22 06:02:58;;;;;;;24.90;16.30;;;;;;;0.28;100.00;100817.48;108354;1253;76922;-68
2023/11/22 06:05:27;;;;;;;26.40;16.20;;;;;;;0.33;100.00;100818.73;108161;1251;71579;-69
2023/11/22 06:08:05;;;;;;;21.60;14.20;;;;;;;0.35;100.00;100818.77;108153;1251;73187;-68
2023/11/22 06:10:41;;;;;;;26.10;15.70;;;;;;;0.36;100.00;100824.92;108170;1256;60878;-69
2023/11/22 06:13:19;;;;;;;26.00;15.70;;;;;;;0.36;100.00;100829.00;108181;1251;60323;-68
2023/11/22 06:15:52;;;;;;;25.50;15.90;;;;;;;0.36;100.00;100831.14;108216;1251;72609;-68
2023/11/22 06:18:29;;;;;;;24.40;15.70;;;;;;;0.40;100.00;100838.19;108299;1253;73194;-68
2023/11/22 06:20:59;;;;;;;23.20;15.30;;;;;;;0.44;100.00;100842.16;108168;1254;71415;-70
2023/11/22 06:23:30;;;;;;;19.50;12.30;;;;;;;0.47;100.00;100841.69;108345;1251;59928;-69
2023/11/22 06:25:59;;;;;;;23.70;15.00;;;;;;;0.48;100.00;100844.67;108172;1251;60235;-68
2023/11/22 06:28:44;;;;;;;26.70;16.80;;;;;;;0.49;100.00;100849.73;108111;1253;73913;-69
2023/11/22 06:31:15;;;;;;;24.50;16.20;;;;;;;0.49;100.00;100849.89;108163;1258;72942;-68
2023/11/22 06:33:52;;;;;;;25.60;16.90;;;;;;;0.48;100.00;100857.56;108123;1253;72956;-68
2023/11/22 06:36:20;;;;;;;30.10;17.60;;;;;;;0.48;100.00;100859.84;108259;1251;61018;-68
2023/11/22 06:38:47;;;;;;;28.80;17.50;;;;;;;0.48;99.99;100860.89;108265;1251;60310;-69
2023/11/22 06:41:17;;;;;;;26.90;18.00;;;;;;;0.52;99.99;100861.23;108243;1257;72883;-70
2023/11/22 06:43:45;;;;;;;22.90;14.80;;;;;;;0.58;100.00;100858.59;108241;1251;72554;-70
2023/11/22 06:46:13;;;;;;;24.80;15.40;;;;;;;0.61;99.83;100856.48;108251;1251;71362;-69
2023/11/22 06:48:40;;;;;;;23.00;14.30;;;;;;;0.59;99.27;100866.90;108307;1251;60333;-69
2023/11/22 06:51:08;;;;;;;25.70;16.40;;;;;;;0.60;99.12;100866.13;108183;1251;60212;-71
2023/11/22 06:53:35;;;;;;;24.30;15.40;;;;;;;0.62;99.14;100864.63;108274;1251;74083;-69
2023/11/22 06:56:04;;;;;;;26.50;15.70;;;;;;;0.64;98.97;100867.60;108236;1251;72050;-70
2023/11/22 06:58:31;;;;;;;25.80;16.70;;;;;;;0.65;98.64;100870.86;108247;1253;71450;-69
2023/11/22 07:01:01;;;;;;;31.20;19.00;;;;;;;0.68;98.38;100874.77;108300;1253;60311;-69
2023/11/22 07:03:28;;;;;;;25.20;16.20;;;;;;;0.70;97.97;100868.89;108213;1251;60435;-68
2023/11/22 07:05:56;;;;;;;28.50;16.00;;;;;;;0.72;97.74;100870.25;108201;1251;73905;-68
2023/11/22 07:08:26;;;;;;;25.40;16.30;;;;;;;0.74;97.50;100871.36;108251;1251;71819;-68
2023/11/22 07:10:54;;;;;;;25.80;16.50;;;;;;;0.73;96.70;100870.30;108185;1251;71335;-69
2023/11/22 07:13:24;;;;;;;27.90;17.30;;;;;;;0.69;96.47;100869.49;108182;1251;60337;-69
2023/11/22 07:15:53;;;;;;;27.60;17.30;;;;;;;0.69;95.84;100867.78;108254;1251;60287;-69
2023/11/22 07:18:24;;;;;;;30.80;19.40;;;;;;;0.68;95.70;100872.05;108208;1251;73828;-68
2023/11/22 07:20:53;;;;;;;26.30;15.80;;;;;;;0.68;95.44;100872.23;108252;1251;73219;-69
2023/11/22 07:23:25;;;;;;;28.70;19.20;;;;;;;0.71;95.45;100877.96;108245;1253;72691;-68
2023/11/22 07:25:54;;;;;;;;;;;;;;;0.70;94.95;100880.25;108159;1253;60387;-69
2023/11/22 07:28:22;;;;;;;26.20;15.70;;;;;;;0.77;95.14;100883.52;108212;1253;60345;-69
2023/11/22 07:30:49;;;;;;;30.80;19.40;;;;;;;0.83;95.01;100884.49;108149;1252;73893;-69
2023/11/22 07:33:20;;;;;;;28.20;17.20;;;;;;;0.89;94.91;100881.77;108168;1251;71254;-71
2023/11/22 07:35:48;;;;;;;24.50;15.90;;;;;;;0.96;94.43;100882.80;108275;1251;71058;-69
2023/11/22 07:38:17;;;;;;;25.10;16.30;;;;;;;0.99;93.62;100881.35;108221;1251;61670;-69
2023/11/22 07:40:45;;;;;;;24.50;15.70;;;;;;;0.98;92.62;100890.48;108140;1251;60524;-70
2023/11/22 07:43:13;;;;;;;20.90;13.40;;;;;;;0.97;92.06;100893.87;108235;1251;72628;-69
2023/11/22 07:45:40;;;;;;;20.80;14.20;;;;;;;0.97;91.43;100896.73;108268;1251;72588;-70
2023/11/22 07:48:11;;;;;;;20.90;14.10;;;;;;;0.91;90.38;100892.02;108192;1254;71272;-69
2023/11/22 07:50:39;;;;;;;21.30;13.50;;;;;;;0.81;89.26;100896.65;108231;1251;61926;-69
2023/11/22 07:53:08;;;;;;;20.00;13.50;;;;;;;0.72;88.57;100902.45;108234;1253;60320;-69
2023/11/22 07:55:37;;;;;;;19.90;13.00;;;;;;;0.62;88.03;100900.63;108193;1251;73856;-69
2023/11/22 07:58:08;;;;;;;16.90;11.50;;;;;;;0.59;87.99;100905.30;108192;1251;72441;-69
2023/11/22 08:00:36;;;;;;;16.60;11.60;;;;;;;0.62;88.25;100907.17;108257;1251;72766;-69
2023/11/22 08:03:06;;;;;;;17.60;12.00;;;;;;;0.64;87.89;100909.41;108231;1253;61123;-70
2023/11/22 08:05:36;;;;;;;18.40;12.00;;;;;;;0.60;87.34;100912.13;108136;1251;60292;-69
2023/11/22 08:08:07;;;;;;;17.30;11.20;;;;;;;0.60;86.89;100915.15;108173;1257;73860;-68
2023/11/22 08:10:36;;;;;;;15.70;11.10;;;;;;;0.61;86.86;100917.64;108176;1253;72805;-68
2023/11/22 08:13:03;;;;;;;16.00;11.00;;;;;;;0.58;86.50;100913.98;108221;1253;72511;-69
2023/11/22 08:15:31;;;;;;;16.10;11.50;;;;;;;0.51;85.93;100915.31;108186;1253;60292;-69
2023/11/22 08:18:03;;;;;;;14.50;9.90;;;;;;;0.45;85.58;100916.20;108226;1252;60432;-69
2023/11/22 08:20:30;;;;;;;16.30;11.20;;;;;;;0.43;85.78;100915.73;108133;1253;72495;-69
2023/11/22 08:23:00;;;;;;;14.80;10.20;;;;;;;0.41;85.58;100923.91;108206;1253;71451;-68
2023/11/22 08:25:29;;;;;;;14.20;9.50;;;;;;;0.37;85.16;100928.09;107881;1253;70432;-72
2023/11/22 08:27:57;;;;;;;13.30;8.20;;;;;;;0.28;84.48;100931.25;108338;1256;60346;-69
2023/11/22 08:30:25;;;;;;;15.90;10.10;;;;;;;0.19;84.02;100931.81;108213;1253;60447;-70
2023/11/22 08:32:55;;;;;;;15.10;9.90;;;;;;;0.15;84.00;100937.27;108228;1253;72917;-66
2023/11/22 08:35:23;;;;;;;14.50;9.50;;;;;;;0.15;84.21;100937.60;108156;1253;72741;-69
2023/11/22 08:37:51;;;;;;;13.20;8.70;;;;;;;0.16;84.19;100936.96;108263;1251;71472;-70
2023/11/22 08:40:22;;;;;;;13.00;8.80;;;;;;;0.17;83.96;100941.71;108252;1251;60878;-69
2023/11/22 08:42:50;;;;;;;13.30;9.10;;;;;;;0.15;83.76;100943.14;108130;1251;60223;-70
2023/11/22 08:45:17;;;;;;;12.40;8.50;;;;;;;0.16;83.73;100938.74;108218;1251;73968;-70
2023/11/22 08:47:46;;;;;;;14.20;9.20;;;;;;;0.13;82.93;100938.19;108321;1251;72565;-69
2023/11/22 08:50:15;;;;;;;15.00;9.30;;;;;;;0.07;82.36;100942.80;108214;1251;71405;-69
2023/11/22 08:52:44;;;;;;;12.50;8.10;;;;;;;0.02;82.18;100949.65;108167;1253;60320;-70
2023/11/22 08:55:20;;;;;;;13.50;8.00;;;;;;;-0.06;81.51;100953.35;108152;1251;60884;-69
2023/11/22 08:57:48;;;;;;;12.40;8.20;;;;;;;-0.14;81.48;100949.87;108130;1253;72110;-69
2023/11/22 09:00:16;;;;;;;13.20;8.50;;;;;;;-0.15;81.52;100947.02;108186;1251;70987;-69
2023/11/22 09:02:43;;;;;;;12.90;8.10;;;;;;;-0.14;81.83;100946.39;108175;1251;72547;-69
2023/11/22 09:05:12;;;;;;;13.10;7.90;;;;;;;-0.14;81.63;100942.55;108155;1251;60303;-69
2023/11/22 09:07:40;;;;;;;12.30;8.80;;;;;;;-0.19;81.39;100939.48;108317;1251;60134;-69
2023/11/22 09:10:09;;;;;;;13.00;8.50;;;;;;;-0.20;81.53;100942.38;108151;1253;73657;-69
2023/11/22 09:12:41;;;;;;;15.80;9.00;;;;;;;-0.16;81.87;100941.88;108172;1253;72831;-68
2023/11/22 09:15:11;;;;;;;13.40;8.80;;;;;;;-0.12;81.59;100938.23;108163;1253;71353;-68
2023/11/22 09:17:46;;;;;;;14.00;9.10;;;;;;;-0.09;81.15;100932.02;108380;1255;61045;-69
2023/11/22 09:20:18;;;;;;;13.20;8.50;;;;;;;-0.04;81.15;100932.86;108289;1253;59589;-70
2023/11/22 09:22:48;;;;;;;13.60;8.40;;;;;;;-0.03;80.84;100931.67;108150;1252;72682;-69
2023/11/22 09:25:24;;;;;;;12.80;7.80;;;;;;;-0.04;80.51;100935.25;108192;1253;72676;-69
2023/11/22 09:27:55;;;;;;;13.00;8.20;;;;;;;-0.09;80.29;100939.35;108238;1253;72804;-70
2023/11/22 09:30:38;;;;;;;11.10;7.60;;;;;;;-0.12;80.12;100946.84;108245;1254;61115;-69
2023/11/22 09:33:14;;;;;;;12.30;7.60;;;;;;;-0.15;79.85;100948.08;108246;1251;60447;-69
2023/11/22 09:35:44;;;;;;;11.90;7.50;;;;;;;-0.20;79.40;100951.79;108205;1251;73869;-70
2023/11/22 09:38:12;;;;;;;12.00;8.30;;;;;;;-0.32;79.12;100951.42;108247;1251;72448;-70
2023/11/22 09:40:45;;;;;;;12.90;8.60;;;;;;;-0.37;79.26;100951.29;108177;1251;72837;-69
2023/11/22 09:43:17;;;;;;;14.50;8.90;;;;;;;-0.38;79.28;100951.80;108188;1251;59671;-70
2023/11/22 09:45:57;;;;;;;12.60;9.00;;;;;;;-0.37;79.71;100948.54;108077;1251;61338;-69
2023/11/22 09:48:31;;;;;;;12.70;8.50;;;;;;;-0.36;79.54;100952.08;108163;1251;74657;-70
2023/11/22 09:51:17;;;;;;;13.90;9.30;;;;;;;-0.38;79.28;100949.19;108220;1251;73889;-70
2023/11/22 09:53:56;;;;;;;12.70;8.50;;;;;;;-0.39;79.45;100949.45;108119;1253;72723;-69
2023/11/22 09:56:24;;;;;;;15.00;9.30;;;;;;;-0.36;79.52;100953.16;108146;1253;61507;-69
2023/11/22 09:58:57;;;;;;;14.40;8.50;;;;;;;-0.33;79.47;100952.81;108210;1253;60568;-70
2023/11/22 10:01:27;;;;;;;11.70;7.90;;;;;;;-0.33;79.28;100955.58;108013;1252;414397;-69
2023/11/22 10:03:56;;;;;;;13.30;7.80;;;;;;;-0.34;79.03;100960.84;108056;1253;71801;-71
2023/11/22 10:06:24;;;;;;;12.10;8.90;;;;;;;-0.37;78.69;100966.29;108182;1253;72467;-69
2023/11/22 10:08:52;;;;;;;13.10;8.20;;;;;;;-0.37;78.98;100969.64;108203;1253;60287;-71
2023/11/22 10:11:24;;;;;;;14.30;8.70;;;;;;;-0.36;78.82;100972.00;108242;1253;60297;-70
2023/11/22 10:14:05;;;;;;;12.70;7.70;;;;;;;-0.42;78.50;100972.89;108221;1253;73809;-71
2023/11/22 10:17:00;;;;;;;12.50;7.70;;;;;;;-0.50;78.38;100976.55;108164;1251;73853;-70
2023/11/22 10:19:29;;;;;;;13.60;8.20;;;;;;;-0.55;77.97;100976.41;108117;1253;71448;-69
2023/11/22 10:22:07;;;;;;;13.70;8.40;;;;;;;-0.59;77.92;100975.83;108172;1254;59854;-71
2023/11/22 10:24:35;;;;;;;12.10;8.00;;;;;;;-0.64;78.03;100977.36;108171;1251;60467;-69
2023/11/22 10:27:04;;;;;;;11.00;7.40;;;;;;;-0.71;77.97;100982.56;108155;1251;73946;-70
2023/11/22 10:29:33;;;;;;;14.40;9.60;;;;;;;-0.73;78.14;100983.14;108217;1251;71457;-69
2023/11/22 10:32:01;;;;;;;15.70;9.90;;;;;;;-0.74;78.59;100985.86;108347;1252;72620;-71
2023/11/22 10:34:29;;;;;;;16.90;10.10;;;;;;;-0.73;78.59;100989.30;107900;1253;60052;-69
2023/11/22 10:36:57;;;;;;;14.90;9.60;;;;;;;-0.71;78.76;100986.84;108119;1253;60444;-69
2023/11/22 10:39:26;;;;;;;12.70;7.90;;;;;;;-0.69;78.83;100988.05;108170;1251;73853;-70
2023/11/22 10:41:54;;;;;;;13.50;9.40;;;;;;;-0.67;79.03;100986.88;108119;1251;71685;-69
2023/11/22 10:44:22;;;;;;;14.20;8.90;;;;;;;-0.70;78.45;100991.06;108129;1253;71171;-69
2023/11/22 10:46:51;;;;;;;15.40;9.70;;;;;;;-0.76;78.40;100991.15;108156;1251;60918;-69
2023/11/22 10:49:19;;;;;;;14.00;8.40;;;;;;;-0.79;78.28;100993.17;108131;1251;60362;-70
2023/11/22 10:51:50;;;;;;;14.50;8.90;;;;;;;-0.83;78.15;100993.79;108342;1251;71719;-70
2023/11/22 10:54:19;;;;;;;13.80;8.90;;;;;;;-0.87;78.15;100995.67;108136;1251;72940;-70
2023/11/22 10:56:50;;;;;;;12.40;8.20;;;;;;;-0.92;78.41;100996.17;108168;1253;73132;-70
2023/11/22 10:59:19;;;;;;;16.10;9.50;;;;;;;-0.92;78.47;100994.10;108181;1253;62091;-71
2023/11/22 11:01:48;;;;;;;14.50;9.80;;;;;;;-0.93;78.41;100998.02;108276;1251;60516;-70
2023/11/22 11:04:24;;;;;;;14.80;9.40;;;;;;;-0.97;78.67;100996.98;108238;1251;74291;-69
2023/11/22 11:06:55;;;;;;;16.30;9.30;;;;;;;-0.99;78.69;100998.31;108202;1256;71576;-70
2023/11/22 11:09:26;;;;;;;13.00;8.30;;;;;;;-0.99;78.66;100996.90;108093;1254;72629;-70
2023/11/22 11:11:56;;;;;;;14.10;8.90;;;;;;;-1.01;78.91;101000.98;108194;1254;61173;-69
2023/11/22 11:14:24;;;;;;;15.50;9.70;;;;;;;-1.00;79.23;101003.20;108122;1251;61230;-69
2023/11/22 11:16:54;;;;;;;14.80;9.50;;;;;;;-0.98;79.26;100996.80;108107;1253;74035;-69
2023/11/22 11:19:25;;;;;;;14.10;9.20;;;;;;;-0.91;79.34;100996.65;108154;1253;72748;-69
2023/11/22 11:21:54;;;;;;;15.70;10.50;;;;;;;-0.84;79.69;101004.88;108147;1253;72277;-69